This is the latest recevied weather packets stored in our database for station/object KK7AZD-13. If no packets are shown the sender has not sent any weather packets the latest 10 day(s).
| Time | Temp. | Humidity | Pressure | Rain* | Wind** | Luminosity | Snow |
|---|---|---|---|---|---|---|---|
| 1777488189 | 12.78° C | 47% | 1020 hPa | 0 mm | - | 884 W/m² | - |
| 1777487286 | 13.33° C | 42% | 1019.9 hPa | 0 mm | - | 937 W/m² | - |
| 1777486384 | 12.78° C | 52% | 1020.1 hPa | 0 mm | - | 954 W/m² | - |
| 1777485479 | 12.22° C | 54% | 1020 hPa | 0 mm | - | 878 W/m² | - |
| 1777484575 | 11.67° C | 52% | 1020.1 hPa | 0 mm | - | 810 W/m² | - |
| 1777483670 | 11.67° C | 53% | 1020.4 hPa | 0 mm | - | 761 W/m² | - |
| 1777482770 | 10.56° C | 59% | 1020.1 hPa | 0 mm | - | 672 W/m² | - |
| 1777481867 | 9.44° C | 61% | 1020.3 hPa | 0 mm | - | 614 W/m² | - |
| 1777480963 | 10° C | 62% | 1020.4 hPa | 0 mm | - | 563 W/m² | - |
| 1777480064 | 9.44° C | 59% | 1020.6 hPa | 0 mm | - | 525 W/m² | - |
| 1777479160 | 8.33° C | 60% | 1020.4 hPa | 0 mm | - | 435 W/m² | - |
| 1777478257 | 7.22° C | 64% | 1020.8 hPa | 0 mm | - | 347 W/m² | - |
| 1777477356 | 6.11° C | 67% | 1020.9 hPa | 0 mm | - | 309 W/m² | - |
| 1777476453 | 5° C | 71% | 1021.2 hPa | 0 mm | - | 151 W/m² | - |
| 1777475547 | 3.89° C | 74% | 1021.2 hPa | 0 mm | - | 131 W/m² | - |
| 1777474647 | 3.33° C | 78% | 1021 hPa | 0 mm | - | 159 W/m² | - |
| 1777473744 | 2.22° C | 81% | 1021 hPa | 0 mm | - | 128 W/m² | - |
| 1777472840 | 1.67° C | 82% | 1021.4 hPa | 0 mm | - | 67 W/m² | - |
| 1777471940 | 0° C | 86% | 1021.3 hPa | 0 mm | - | 43 W/m² | - |
| 1777471036 | 0° C | 87% | 1020.9 hPa | 0 mm | - | 36 W/m² | - |
| 1777470131 | -1.11° C | 89% | 1020.9 hPa | 0 mm | - | 23 W/m² | - |
| 1777469230 | -1.11° C | 89% | 1020.8 hPa | 0 mm | - | 13 W/m² | - |
| 1777468330 | -1.67° C | 90% | 1020.7 hPa | 0 mm | - | 5 W/m² | - |
| 1777467429 | -1.67° C | 90% | 1020.8 hPa | 0 mm | - | 0 W/m² | - |
| 1777466526 | -1.67° C | 90% | 1020.6 hPa | 0 mm | - | 0 W/m² | - |
* Rain latest hour (hover to see other rain measurements)
** Current wind speed in m/s (hover to see current wind gust speed)